Time;durP1;ratioP1;P1;durP2;ratioP2;P2;SDS_P1;SDS_P2;PMS_P1;PMS_P2;Temp;Humidity;BMP_temperature;BMP_pressure;BME280_temperature;BME280_humidity;BME280_pressure;Samples;Min_cycle;Max_cycle;Signal;HPM_P1;HPM_P2
2022/10/02 00:00:00;;;;;;;30.83;5.87;;;;;;;-145.18;100.00;46644.78;6207797;23;20039;-73
2022/10/02 00:02:41;;;;;;;35.33;5.20;;;;;;;-145.18;100.00;46642.81;6212445;23;19996;-74
2022/10/02 00:05:15;;;;;;;43.80;7.50;;;;;;;-145.18;100.00;46646.72;6212814;23;20020;-74
2022/10/02 00:07:51;;;;;;;42.97;8.50;;;;;;;-145.18;100.00;46648.69;6212085;23;20030;-74
2022/10/02 00:10:35;;;;;;;39.03;6.93;;;;;;;-145.18;100.00;46644.78;6212598;23;20019;-74
2022/10/02 00:13:04;;;;;;;36.67;5.80;;;;;;;-145.18;100.00;46644.78;6211816;23;20390;-74
2022/10/02 00:15:33;;;;;;;50.90;8.10;;;;;;;-145.18;100.00;46681.88;6212773;23;20024;-74
2022/10/02 00:18:10;;;;;;;35.57;4.93;;;;;;;-145.18;100.00;46642.81;6212038;23;20012;-74
2022/10/02 00:20:45;;;;;;;39.80;5.23;;;;;;;-145.18;100.00;46642.81;6212401;23;20123;-73
2022/10/02 00:23:25;;;;;;;35.80;5.90;;;;;;;-145.18;100.00;46677.97;6212310;23;20001;-74
2022/10/02 00:26:17;;;;;;;37.40;6.40;;;;;;;-145.18;100.00;46650.63;6212511;23;20001;-73
2022/10/02 00:28:50;;;;;;;23.67;5.17;;;;;;;-145.18;100.00;46642.81;6212188;23;20009;-73
2022/10/02 00:31:34;;;;;;;32.97;6.20;;;;;;;-145.18;100.00;46646.72;6212285;23;20024;-74
2022/10/02 00:34:11;;;;;;;38.07;5.37;;;;;;;-145.18;100.00;46679.94;6212462;23;20035;-74
2022/10/02 00:36:40;;;;;;;36.47;5.00;;;;;;;-145.18;100.00;46642.81;6235395;23;20004;-74
2022/10/02 00:39:38;;;;;;;30.90;4.43;;;;;;;-145.18;100.00;46642.81;6212470;23;20009;-74
2022/10/02 00:42:18;;;;;;;22.23;4.23;;;;;;;-145.18;100.00;46642.81;6211705;23;20011;-73
2022/10/02 00:44:50;;;;;;;34.23;5.20;;;;;;;-145.18;100.00;46644.78;6212104;23;20008;-73
2022/10/02 00:47:30;;;;;;;36.53;5.83;;;;;;;-145.18;100.00;46646.72;6212472;23;20001;-73
2022/10/02 00:50:17;;;;;;;31.33;5.90;;;;;;;-145.18;100.00;46644.78;6212173;23;20012;-73
2022/10/02 00:52:48;;;;;;;37.43;5.90;;;;;;;-145.18;100.00;46642.81;6211413;23;20012;-73
2022/10/02 00:55:24;;;;;;;37.07;5.60;;;;;;;-145.18;100.00;46640.88;6212609;23;20004;-74
2022/10/02 00:57:53;;;;;;;42.53;6.00;;;;;;;-145.18;100.00;46640.88;6211424;23;20001;-78
2022/10/02 01:00:19;;;;;;;28.37;4.80;;;;;;;-145.18;100.00;46640.88;6212293;23;20005;-75
2022/10/02 01:02:58;;;;;;;34.83;5.50;;;;;;;-145.18;100.00;46640.88;6211676;23;19996;-75
2022/10/02 01:05:26;;;;;;;34.30;5.27;;;;;;;-145.18;100.00;46640.88;6212319;23;20016;-75
2022/10/02 01:07:53;;;;;;;36.13;6.40;;;;;;;-145.18;100.00;46642.81;6211610;23;20004;-74
2022/10/02 01:10:21;;;;;;;37.73;5.53;;;;;;;-145.18;100.00;46642.81;6211991;23;20334;-74
2022/10/02 01:12:48;;;;;;;29.07;4.33;;;;;;;-145.18;100.00;46638.91;6211780;23;19997;-74
2022/10/02 01:15:19;;;;;;;30.20;4.73;;;;;;;-145.18;100.00;46644.78;6212145;23;20434;-74
2022/10/02 01:17:48;;;;;;;36.20;5.33;;;;;;;-145.18;100.00;46644.78;6211918;23;20009;-74
2022/10/02 01:20:18;;;;;;;31.93;4.37;;;;;;;-145.18;100.00;46640.88;6212040;23;20012;-73
2022/10/02 01:23:11;;;;;;;35.23;4.93;;;;;;;-145.18;100.00;46642.81;6211650;23;20005;-73
2022/10/02 01:25:36;;;;;;;27.77;4.17;;;;;;;-145.18;100.00;46640.88;6212190;23;20009;-73
2022/10/02 01:28:04;;;;;;;24.10;4.37;;;;;;;-145.18;100.00;46677.97;6211899;23;20461;-74
2022/10/02 01:30:30;;;;;;;30.80;4.43;;;;;;;-145.18;100.00;46638.91;6212641;23;20005;-74
2022/10/02 01:32:59;;;;;;;34.77;5.07;;;;;;;-145.18;100.00;46644.78;6211259;23;20013;-74
2022/10/02 01:35:30;;;;;;;33.70;5.43;;;;;;;-145.18;100.00;46640.88;6212021;23;20008;-74
2022/10/02 01:37:57;;;;;;;33.60;4.70;;;;;;;-145.18;100.00;46644.78;6211714;23;20450;-74
2022/10/02 01:40:29;;;;;;;33.13;4.33;;;;;;;-145.18;100.00;46640.88;6212404;23;20537;-74
2022/10/02 01:43:01;;;;;;;29.20;5.17;;;;;;;-145.18;100.00;46677.97;6211826;23;20023;-74
2022/10/02 01:45:56;;;;;;;37.10;4.87;;;;;;;-145.18;100.00;46644.78;6214120;23;20422;-74
2022/10/02 01:48:40;;;;;;;42.23;5.40;;;;;;;-145.18;100.00;46644.78;6212532;23;20018;-74
2022/10/02 01:51:27;;;;;;;26.40;4.60;;;;;;;-145.18;100.00;46644.78;6213942;23;20009;-74
2022/10/02 01:54:15;;;;;;;27.77;4.27;;;;;;;-145.18;100.00;46642.81;6213683;23;20001;-74
2022/10/02 01:56:40;;;;;;;32.83;5.33;;;;;;;-145.18;100.00;46640.88;6213130;23;20016;-74
2022/10/02 01:59:56;;;;;;;21.87;3.93;;;;;;;-145.18;100.00;46640.88;6213930;23;20005;-74
2022/10/02 02:02:40;;;;;;;33.43;4.87;;;;;;;-145.18;100.00;46642.81;6182087;22;20354;-77
2022/10/02 02:05:25;;;;;;;26.17;4.03;;;;;;;-145.18;100.00;46640.88;6241133;23;20008;-76
2022/10/02 02:08:18;;;;;;;28.83;4.73;;;;;;;-145.18;100.00;46638.91;6243632;23;20008;-76
2022/10/02 02:10:51;;;;;;;32.53;5.33;;;;;;;-145.18;100.00;46642.81;6244081;23;20062;-78
2022/10/02 02:13:27;;;;;;;27.20;4.47;;;;;;;-145.18;100.00;46644.78;6243528;23;20008;-77
2022/10/02 02:16:17;;;;;;;32.47;4.90;;;;;;;-145.18;100.00;46644.78;6244543;23;20028;-76
2022/10/02 02:18:58;;;;;;;30.10;4.67;;;;;;;-145.18;100.00;46644.78;6243701;23;20004;-76
2022/10/02 02:21:34;;;;;;;22.10;4.10;;;;;;;-145.18;100.00;46640.88;6244204;23;20007;-77
2022/10/02 02:24:04;;;;;;;24.27;3.60;;;;;;;-145.18;100.00;46640.88;6243560;23;20371;-76
2022/10/02 02:26:31;;;;;;;30.03;5.57;;;;;;;-145.18;100.00;46640.88;6217425;23;20000;-76
2022/10/02 02:29:02;;;;;;;25.27;4.10;;;;;;;-145.18;100.00;46677.97;6243604;23;20437;-76
2022/10/02 02:31:42;;;;;;;23.97;4.13;;;;;;;-145.18;100.00;46644.78;6244052;23;20425;-76
2022/10/02 02:34:15;;;;;;;29.27;5.23;;;;;;;-145.18;100.00;46642.81;6243334;23;20000;-76
2022/10/02 02:36:45;;;;;;;29.03;3.80;;;;;;;-145.18;100.00;46642.81;6244141;23;20027;-77
2022/10/02 02:39:17;;;;;;;29.60;4.77;;;;;;;-145.18;100.00;46642.81;6243219;23;20015;-76
2022/10/02 02:41:50;;;;;;;28.50;3.13;;;;;;;-145.18;100.00;46642.81;6244184;23;20008;-76
2022/10/02 02:44:32;;;;;;;33.93;4.97;;;;;;;-145.18;100.00;46638.91;6216458;23;20333;-76
2022/10/02 02:47:09;;;;;;;31.43;5.03;;;;;;;-145.18;100.00;46642.81;6243898;23;20004;-76
2022/10/02 02:49:43;;;;;;;31.37;4.80;;;;;;;-145.18;100.00;46640.88;6243682;23;20032;-76
2022/10/02 02:52:12;;;;;;;40.17;5.20;;;;;;;-145.18;100.00;46638.91;6243468;23;20004;-76
2022/10/02 02:54:45;;;;;;;33.60;5.17;;;;;;;-145.18;100.00;46644.78;6244006;23;20413;-76
2022/10/02 02:57:13;;;;;;;40.63;5.13;;;;;;;-145.18;100.00;46638.91;6216569;23;20015;-76
2022/10/02 02:59:43;;;;;;;42.53;6.67;;;;;;;-145.18;100.00;46644.78;6244247;23;20012;-76
2022/10/02 03:02:09;;;;;;;42.63;5.63;;;;;;;-145.18;100.00;46640.88;6242936;23;20010;-77
2022/10/02 03:04:34;;;;;;;40.43;6.43;;;;;;;-145.18;100.00;46636.94;6243568;23;20008;-76
2022/10/02 03:07:03;;;;;;;37.73;5.70;;;;;;;-145.18;100.00;46640.88;6243726;23;20421;-77
2022/10/02 03:09:32;;;;;;;40.27;5.13;;;;;;;-145.18;100.00;46642.81;6243667;23;20011;-76
2022/10/02 03:12:03;;;;;;;42.80;7.77;;;;;;;-145.18;100.00;46638.91;6243590;23;20003;-76
2022/10/02 03:15:02;;;;;;;38.87;5.70;;;;;;;-145.18;100.00;46644.78;6243642;23;20025;-76
2022/10/02 03:17:49;;;;;;;36.07;6.30;;;;;;;-145.18;100.00;46642.81;6243130;23;20372;-76
2022/10/02 03:20:32;;;;;;;33.60;5.13;;;;;;;-145.18;100.00;46642.81;6216681;23;20319;-76
2022/10/02 03:23:27;;;;;;;43.97;5.93;;;;;;;-145.18;100.00;46644.78;6243249;23;20003;-76
2022/10/02 03:26:07;;;;;;;42.43;6.13;;;;;;;-145.18;100.00;46642.81;6243589;23;20004;-76
2022/10/02 03:28:37;;;;;;;33.07;5.03;;;;;;;-145.18;100.00;46640.88;6243206;23;19997;-76
2022/10/02 03:31:03;;;;;;;23.77;4.17;;;;;;;-145.18;100.00;46642.81;6243508;23;20061;-76
2022/10/02 03:33:31;;;;;;;27.20;4.63;;;;;;;-145.18;100.00;46640.88;6243040;23;20456;-76
2022/10/02 03:35:56;;;;;;;29.30;4.37;;;;;;;-145.18;100.00;46644.78;6243701;23;20095;-76
2022/10/02 03:38:24;;;;;;;35.73;5.87;;;;;;;-145.18;100.00;46644.78;6242912;23;20032;-76
2022/10/02 03:40:51;;;;;;;26.43;4.00;;;;;;;-145.18;100.00;46642.81;6243729;23;20091;-76
2022/10/02 03:43:20;;;;;;;21.23;4.17;;;;;;;-145.18;100.00;46640.88;6243011;23;20016;-77
2022/10/02 03:45:46;;;;;;;24.67;3.83;;;;;;;-145.18;100.00;46640.88;6243308;23;20004;-76
2022/10/02 03:48:12;;;;;;;19.60;3.40;;;;;;;-145.18;100.00;46640.88;6242453;23;20008;-76
2022/10/02 03:50:37;;;;;;;29.17;4.53;;;;;;;-145.18;100.00;46638.91;6243461;23;20342;-78
2022/10/02 03:53:13;;;;;;;24.20;3.37;;;;;;;-145.18;100.00;46642.81;6242955;23;20004;-77
2022/10/02 03:55:40;;;;;;;;;;;;;;;-145.18;100.00;46660.41;6243774;23;20004;-77
2022/10/02 03:58:13;;;;;;;20.10;3.97;;;;;;;-145.18;100.00;46644.78;6242503;23;19907;-77
2022/10/02 04:00:48;;;;;;;23.07;3.23;;;;;;;-145.18;100.00;46642.81;6240154;23;20150;-76
2022/10/02 04:03:20;;;;;;;25.00;3.65;;;;;;;-145.18;100.00;46676.03;6239461;23;20334;-75
2022/10/02 04:05:45;;;;;;;19.17;3.40;;;;;;;-145.18;100.00;46644.78;6242091;23;20011;-75
2022/10/02 04:08:18;;;;;;;25.73;4.43;;;;;;;-145.18;100.00;46638.91;6241407;23;20008;-75
2022/10/02 04:11:31;;;;;;;19.80;3.17;;;;;;;-145.18;100.00;46640.88;6242561;23;20451;-75
2022/10/02 04:14:01;;;;;;;21.53;3.40;;;;;;;-145.18;100.00;46640.88;6242264;23;19996;-75
2022/10/02 04:16:34;;;;;;;22.43;3.03;;;;;;;-145.18;100.00;46642.81;6242695;23;20008;-75
2022/10/02 04:19:21;;;;;;;27.17;3.87;;;;;;;-145.18;100.00;46636.94;6242207;23;20105;-76
2022/10/02 04:22:06;;;;;;;21.17;3.03;;;;;;;-145.18;100.00;46636.94;6242401;23;20014;-76
2022/10/02 04:24:43;;;;;;;20.33;3.50;;;;;;;-145.18;100.00;46638.91;6242600;23;20426;-77
2022/10/02 04:27:26;;;;;;;23.90;3.10;;;;;;;-145.18;100.00;46642.81;6242599;23;19999;-76
2022/10/02 04:29:58;;;;;;;20.60;2.80;;;;;;;-145.18;100.00;46644.78;6242924;23;20000;-76
2022/10/02 04:32:29;;;;;;;17.83;3.27;;;;;;;-145.18;100.00;46642.81;6241629;23;20001;-77
2022/10/02 04:34:56;;;;;;;23.93;3.30;;;;;;;-145.18;100.00;46642.81;6241391;23;20015;-77
2022/10/02 04:37:42;;;;;;;27.13;3.83;;;;;;;-145.18;100.00;46640.88;6241172;23;20004;-76
2022/10/02 04:40:10;;;;;;;23.00;2.92;;;;;;;-145.18;100.00;46640.88;6198694;23;20000;-76
2022/10/02 04:42:44;;;;;;;21.93;3.00;;;;;;;-145.18;100.00;46638.91;6240620;23;20004;-77
2022/10/02 04:45:33;;;;;;;23.97;3.30;;;;;;;-145.18;100.00;46676.03;6241984;23;20083;-76
2022/10/02 04:48:20;;;;;;;21.03;3.77;;;;;;;-145.18;100.00;46642.81;6242100;23;20008;-77
2022/10/02 04:50:45;;;;;;;19.87;3.00;;;;;;;-145.18;100.00;46646.72;6242466;23;20008;-77
2022/10/02 04:53:42;;;;;;;20.93;2.73;;;;;;;-145.18;100.00;46636.94;6242005;23;20673;-78
2022/10/02 04:56:23;;;;;;;22.90;3.00;;;;;;;-145.18;100.00;46648.69;6242931;23;20004;-77
2022/10/02 04:59:13;;;;;;;23.73;3.40;;;;;;;-145.18;100.00;46642.81;6242211;23;20010;-78
2022/10/02 05:01:47;;;;;;;21.97;2.47;;;;;;;-145.18;100.00;46644.78;6242652;23;20023;-77
2022/10/02 05:04:56;;;;;;;24.13;3.57;;;;;;;-145.18;100.00;46644.78;6242098;23;20016;-76
2022/10/02 05:07:40;;;;;;;19.03;2.87;;;;;;;-145.18;100.00;46646.72;6242634;23;20015;-78
2022/10/02 05:10:33;;;;;;;19.07;3.13;;;;;;;-145.18;100.00;46644.78;6242047;23;20000;-77
2022/10/02 05:13:07;;;;;;;25.57;3.03;;;;;;;-145.18;100.00;46646.72;6242139;23;20027;-78
2022/10/02 05:16:05;;;;;;;13.47;2.77;;;;;;;-145.18;100.00;46644.78;6242670;23;20004;-77
2022/10/02 05:18:55;;;;;;;16.87;2.90;;;;;;;-145.18;100.00;46644.78;6243426;23;20465;-76
2022/10/02 05:21:35;;;;;;;17.47;2.90;;;;;;;-145.18;100.00;46646.72;6243833;23;20421;-76
2022/10/02 05:24:29;;;;;;;16.40;1.93;;;;;;;-145.18;100.00;46648.69;6243295;23;20422;-77
2022/10/02 05:27:24;;;;;;;13.37;2.37;;;;;;;-145.18;100.00;46648.69;6244650;23;20000;-77
2022/10/02 05:30:06;;;;;;;16.85;2.55;;;;;;;-145.18;100.00;46642.81;6238412;23;20692;-76
2022/10/02 05:33:02;;;;;;;17.03;2.60;;;;;;;-145.18;100.00;46648.69;6244147;23;20004;-77
2022/10/02 05:36:09;;;;;;;12.27;2.47;;;;;;;-145.18;100.00;46650.63;6244472;23;20000;-76
2022/10/02 05:39:18;;;;;;;18.02;3.00;;;;;;;-145.18;100.00;46652.59;6243826;23;20337;-77
2022/10/02 05:42:19;;;;;;;16.60;2.50;;;;;;;-145.18;100.00;46650.63;6244620;23;20009;-77
2022/10/02 05:44:51;;;;;;;21.03;3.30;;;;;;;-145.18;100.00;46650.63;6244205;23;20000;-77
2022/10/02 05:47:25;;;;;;;16.10;2.87;;;;;;;-145.18;100.00;46646.72;6244219;23;20008;-77
2022/10/02 05:49:57;;;;;;;20.63;3.03;;;;;;;-145.18;100.00;46652.59;6244207;23;20470;-77
2022/10/02 05:52:29;;;;;;;26.23;4.27;;;;;;;-145.18;100.00;46646.72;6243158;23;20417;-77
2022/10/02 05:55:20;;;;;;;22.90;3.70;;;;;;;-145.18;100.00;46654.53;6244146;23;20425;-77
2022/10/02 05:57:53;;;;;;;16.97;3.57;;;;;;;-145.18;100.00;46652.59;6244094;23;20004;-77
2022/10/02 06:00:37;;;;;;;21.73;3.17;;;;;;;-145.18;100.00;46652.59;6244279;23;20004;-77
2022/10/02 06:03:08;;;;;;;20.57;3.97;;;;;;;-145.18;100.00;46652.59;6216622;23;20441;-77
2022/10/02 06:05:40;;;;;;;29.87;4.43;;;;;;;-145.18;100.00;46650.63;6244350;23;20391;-77
2022/10/02 06:08:11;;;;;;;25.73;3.40;;;;;;;-145.18;100.00;46648.69;6243361;23;20579;-77
2022/10/02 06:10:45;;;;;;;24.60;4.60;;;;;;;-145.18;100.00;46650.63;6244266;23;20070;-78
2022/10/02 06:13:48;;;;;;;26.47;3.60;;;;;;;-145.18;100.00;46652.59;6243402;23;20012;-77
2022/10/02 06:16:20;;;;;;;33.70;4.43;;;;;;;-145.18;100.00;46646.72;6180613;23;20010;-77
2022/10/02 06:18:54;;;;;;;29.93;5.43;;;;;;;-145.18;100.00;46650.63;6243315;23;20342;-77
2022/10/02 06:21:58;;;;;;;24.20;3.80;;;;;;;-145.18;100.00;46648.69;6242157;23;20034;-77
2022/10/02 06:24:32;;;;;;;28.73;4.03;;;;;;;-145.18;100.00;46646.72;6241176;23;20107;-77
2022/10/02 06:27:14;;;;;;;31.17;5.07;;;;;;;-145.18;100.00;46648.69;6242801;23;20004;-77
2022/10/02 06:29:46;;;;;;;24.77;4.17;;;;;;;-145.18;100.00;46656.50;6243165;23;20015;-77
2022/10/02 06:32:12;;;;;;;25.00;3.60;;;;;;;-145.18;100.00;46652.59;6241831;23;20456;-77
2022/10/02 06:34:37;;;;;;;22.33;4.83;;;;;;;-145.18;100.00;46648.69;6240639;23;20004;-78
2022/10/02 06:37:21;;;;;;;24.57;3.40;;;;;;;-145.18;100.00;46644.78;6216652;23;20007;-78
2022/10/02 06:39:57;;;;;;;30.10;4.77;;;;;;;-145.18;100.00;46648.69;6242993;23;20125;-78
2022/10/02 06:42:49;;;;;;;25.80;4.10;;;;;;;-145.18;100.00;46646.72;6243653;23;20395;-77
2022/10/02 06:45:59;;;;;;;26.07;3.40;;;;;;;-145.18;100.00;46650.63;6243665;23;20008;-77
2022/10/02 06:48:50;;;;;;;29.80;4.33;;;;;;;-145.18;100.00;46648.69;6243016;23;20369;-79
2022/10/02 06:51:34;;;;;;;25.07;3.93;;;;;;;-145.18;100.00;46642.81;6243437;23;20074;-78
2022/10/02 06:54:10;;;;;;;25.57;4.97;;;;;;;-145.18;100.00;46646.72;6243421;23;20054;-78
2022/10/02 06:57:05;;;;;;;21.67;4.03;;;;;;;-145.18;100.00;46642.81;6243456;23;20007;-78
2022/10/02 07:00:08;;;;;;;31.20;4.53;;;;;;;-145.18;100.00;46644.78;6229547;23;20012;-78
2022/10/02 07:02:49;;;;;;;26.87;3.43;;;;;;;-145.18;100.00;46648.69;6242399;23;20023;-78
2022/10/02 07:05:52;;;;;;;19.83;4.40;;;;;;;-145.18;100.00;46644.78;6242856;23;20026;-78
2022/10/02 07:08:40;;;;;;;24.40;3.40;;;;;;;-145.18;100.00;46642.81;6242441;23;20008;-78
2022/10/02 07:11:19;;;;;;;22.63;4.73;;;;;;;-145.18;100.00;46646.72;6241954;23;20011;-78
2022/10/02 07:14:38;;;;;;;21.60;3.27;;;;;;;-145.18;100.00;46646.72;6241435;23;20004;-78
2022/10/02 07:17:10;;;;;;;24.27;3.87;;;;;;;-145.18;100.00;46644.78;6119388;23;20030;-78
2022/10/02 07:19:46;;;;;;;22.57;3.50;;;;;;;-145.18;100.00;46646.72;6222533;23;20004;-78
2022/10/02 07:22:26;;;;;;;26.75;5.30;;;;;;;-145.18;100.00;46648.69;6242199;23;20011;-78
2022/10/02 07:25:30;;;;;;;24.03;4.40;;;;;;;-145.18;100.00;46642.81;6241540;23;20004;-78
2022/10/02 07:28:22;;;;;;;27.17;3.00;;;;;;;-145.18;100.00;46650.63;6242034;23;20015;-78
2022/10/02 07:31:09;;;;;;;19.37;3.17;;;;;;;-145.18;100.00;46646.72;6242763;23;20047;-74
2022/10/02 07:33:41;;;;;;;20.60;2.97;;;;;;;-145.18;100.00;46644.78;6242114;23;20011;-74
2022/10/02 07:36:32;;;;;;;27.93;3.00;;;;;;;-145.18;100.00;46650.63;6243066;23;20008;-74
2022/10/02 07:39:21;;;;;;;19.23;2.80;;;;;;;-145.18;100.00;46654.53;6242200;23;20091;-74
2022/10/02 07:42:05;;;;;;;24.50;3.93;;;;;;;-145.18;100.00;46648.69;6243355;23;20058;-74
2022/10/02 07:44:58;;;;;;;21.53;3.97;;;;;;;-145.18;100.00;46648.69;6242561;23;20008;-74
2022/10/02 07:47:45;;;;;;;18.53;2.70;;;;;;;-145.18;100.00;46648.69;6243173;23;20015;-74
2022/10/02 07:50:47;;;;;;;15.97;3.30;;;;;;;-145.18;100.00;46644.78;6238953;23;20809;-74
2022/10/02 07:53:31;;;;;;;20.13;3.03;;;;;;;-145.18;100.00;46644.78;6239013;23;20014;-74
2022/10/02 07:55:57;;;;;;;17.90;2.57;;;;;;;-145.18;100.00;46652.59;6242698;23;20050;-74
2022/10/02 07:58:43;;;;;;;15.87;3.23;;;;;;;-145.18;100.00;46652.59;6242266;23;20083;-74
2022/10/02 08:01:17;;;;;;;26.13;3.38;;;;;;;-145.18;100.00;46644.78;6241402;23;20005;-74
2022/10/02 08:03:49;;;;;;;16.33;3.13;;;;;;;-145.18;100.00;46648.69;6242449;23;20467;-74
2022/10/02 08:06:16;;;;;;;18.10;2.93;;;;;;;-145.18;100.00;46648.69;6242964;23;20004;-74
2022/10/02 08:09:07;;;;;;;18.27;4.10;;;;;;;-145.18;100.00;46650.63;6242075;23;20492;-74
2022/10/02 08:11:39;;;;;;;21.07;4.17;;;;;;;-145.18;100.00;46652.59;6243306;23;20393;-74
2022/10/02 08:14:10;;;;;;;16.63;2.97;;;;;;;-145.18;100.00;46650.63;6242131;23;20004;-74
2022/10/02 08:16:40;;;;;;;15.53;2.33;;;;;;;-145.18;100.00;46650.63;6243087;23;20027;-74
2022/10/02 08:19:15;;;;;;;13.73;2.80;;;;;;;-145.18;100.00;46656.50;6242767;23;20353;-73
2022/10/02 08:21:48;;;;;;;19.20;2.88;;;;;;;-145.18;100.00;46650.63;6243025;23;20032;-74
2022/10/02 08:24:24;;;;;;;14.43;2.47;;;;;;;-145.18;100.00;46656.50;6241545;23;20004;-74
2022/10/02 08:27:09;;;;;;;15.88;2.90;;;;;;;-145.18;100.00;46652.59;6243179;23;20000;-74
2022/10/02 08:29:46;;;;;;;18.08;3.08;;;;;;;-145.18;100.00;46662.34;6242295;23;20008;-73
2022/10/02 08:32:12;;;;;;;20.97;3.53;;;;;;;-145.18;100.00;46656.50;6242424;23;20011;-74
2022/10/02 08:34:40;;;;;;;15.60;2.87;;;;;;;-145.18;100.00;46662.34;6241993;23;20003;-74
2022/10/02 08:37:30;;;;;;;16.53;2.70;;;;;;;-145.18;100.00;46660.41;6242948;23;20065;-73
2022/10/02 08:40:34;;;;;;;18.77;2.53;;;;;;;-145.18;100.00;46662.34;6241808;23;19995;-73
2022/10/02 08:43:36;;;;;;;20.07;3.73;;;;;;;-145.18;100.00;46664.31;6242495;23;20008;-73
2022/10/02 08:46:16;;;;;;;13.37;2.40;;;;;;;-145.18;100.00;46670.16;6226305;23;20005;-73
2022/10/02 08:48:55;;;;;;;22.93;3.10;;;;;;;-145.18;100.00;46662.34;6240595;23;20069;-73
2022/10/02 08:51:36;;;;;;;23.97;3.10;;;;;;;-145.18;100.00;46668.22;6241550;23;20000;-73
2022/10/02 08:54:33;;;;;;;23.37;2.77;;;;;;;-145.18;100.00;46670.16;6240998;23;20087;-73
2022/10/02 08:57:17;;;;;;;19.43;2.63;;;;;;;-145.18;100.00;46672.13;6242372;23;20011;-73
2022/10/02 08:59:51;;;;;;;14.73;2.90;;;;;;;-145.18;100.00;46676.03;6242742;23;20481;-74
2022/10/02 09:02:26;;;;;;;11.67;2.63;;;;;;;-145.18;100.00;46674.06;6242562;23;20095;-74
2022/10/02 09:05:29;;;;;;;14.37;3.47;;;;;;;-145.18;100.00;46672.13;6242639;23;20039;-73
2022/10/02 09:08:32;;;;;;;23.47;3.40;;;;;;;-145.18;100.00;46676.03;6242510;23;20012;-74
2022/10/02 09:11:35;;;;;;;11.73;2.77;;;;;;;-145.18;100.00;46676.03;6242971;23;20088;-74
2022/10/02 09:14:09;;;;;;;13.83;2.27;;;;;;;-145.18;100.00;46679.94;6242393;23;20035;-74
2022/10/02 09:16:53;;;;;;;17.70;2.60;;;;;;;-145.18;100.00;46679.94;6243141;23;20000;-73
2022/10/02 09:19:27;;;;;;;12.50;3.03;;;;;;;-145.18;100.00;46685.78;6241964;23;20008;-74
2022/10/02 09:22:22;;;;;;;16.53;2.77;;;;;;;-145.18;100.00;46683.84;6242985;23;20057;-73
2022/10/02 09:25:27;;;;;;;19.57;2.50;;;;;;;-145.18;100.00;46681.88;6242523;23;20087;-73
2022/10/02 09:28:27;;;;;;;13.83;2.43;;;;;;;-145.18;100.00;46683.84;6181278;23;20337;-73
2022/10/02 09:31:21;;;;;;;14.97;2.57;;;;;;;-145.18;100.00;46685.78;6242913;23;20087;-73
2022/10/02 09:34:05;;;;;;;10.20;2.17;;;;;;;-145.18;100.00;46679.94;6242593;23;20004;-73
2022/10/02 09:37:07;;;;;;;15.20;2.70;;;;;;;-145.18;100.00;46681.88;6242698;23;20036;-73
2022/10/02 09:40:22;;;;;;;14.77;2.60;;;;;;;-145.18;100.00;46687.75;6242076;23;20027;-73
2022/10/02 09:43:32;;;;;;;15.60;2.80;;;;;;;-145.18;100.00;46687.75;6243420;23;20018;-73
2022/10/02 09:46:18;;;;;;;13.67;2.60;;;;;;;-145.18;100.00;46685.78;6236668;23;20523;-73
2022/10/02 09:49:23;;;;;;;13.77;2.50;;;;;;;-145.18;100.00;46687.75;6242253;23;20337;-73
2022/10/02 09:52:00;;;;;;;12.20;2.27;;;;;;;-145.18;100.00;46687.75;6242899;23;20008;-73
2022/10/02 09:54:46;;;;;;;17.67;2.90;;;;;;;-145.18;100.00;46683.84;6240220;23;20042;-73
2022/10/02 09:57:40;;;;;;;13.40;2.50;;;;;;;-145.18;100.00;46679.94;6241571;23;20016;-73
2022/10/02 10:00:20;;;;;;;14.27;2.40;;;;;;;-145.18;100.00;46660.41;6241636;23;20008;-73
2022/10/02 10:02:48;;;;;;;13.50;2.53;;;;;;;-145.18;100.00;46640.88;6241479;23;20051;-73
2022/10/02 10:05:58;;;;;;;13.37;2.27;;;;;;;-145.18;100.00;46599.84;6243506;23;20012;-73
2022/10/02 10:08:59;;;;;;;13.37;2.67;;;;;;;-145.18;100.00;46580.31;6186363;23;20066;-73
2022/10/02 10:11:36;;;;;;;12.43;2.63;;;;;;;-145.18;100.00;46560.78;6216696;23;20449;-73
2022/10/02 10:14:39;;;;;;;20.27;2.57;;;;;;;-145.18;100.00;46560.78;6243576;23;20019;-73
2022/10/02 10:17:22;;;;;;;15.03;2.60;;;;;;;-145.18;100.00;46562.72;6243887;23;20310;-73
2022/10/02 10:20:00;;;;;;;17.00;3.27;;;;;;;-145.18;100.00;46570.53;6244059;23;20008;-73
2022/10/02 10:22:28;;;;;;;14.33;2.27;;;;;;;-145.18;100.00;46574.44;6243796;23;20007;-73
2022/10/02 10:25:27;;;;;;;13.10;2.00;;;;;;;-145.18;100.00;46633.06;6242838;23;20329;-73
2022/10/02 10:28:17;;;;;;;17.00;2.77;;;;;;;-145.18;100.00;46611.56;6244335;23;20057;-73
2022/10/02 10:31:13;;;;;;;18.97;2.97;;;;;;;-145.18;100.00;46668.22;6243118;23;20087;-72
2022/10/02 10:33:56;;;;;;;18.35;3.03;;;;;;;-145.18;100.00;46685.78;6216563;23;20070;-72
2022/10/02 10:40:23;;;;;;;13.30;2.23;;;;;;;-145.18;100.00;46685.78;6243790;23;20125;-72
2022/10/02 10:43:13;;;;;;;16.33;3.10;;;;;;;-145.18;100.00;46683.84;6243660;23;20000;-72
2022/10/02 10:46:08;;;;;;;18.83;2.67;;;;;;;-145.18;100.00;46677.97;6243372;23;20425;-72
2022/10/02 10:48:55;;;;;;;16.00;2.80;;;;;;;-145.18;100.00;46668.22;6242270;23;20418;-72
2022/10/02 10:51:44;;;;;;;15.20;2.40;;;;;;;-145.18;100.00;46660.41;6242597;23;20022;-72
2022/10/02 10:54:22;;;;;;;14.17;2.50;;;;;;;-145.18;100.00;46646.72;6243630;23;20307;-73
2022/10/02 10:57:13;;;;;;;14.37;2.50;;;;;;;-145.18;100.00;46592.03;6243886;23;20046;-72
2022/10/02 11:00:06;;;;;;;12.80;2.60;;;;;;;-145.18;100.00;46566.63;6243423;23;20083;-72
2022/10/02 11:02:57;;;;;;;12.30;2.60;;;;;;;-145.18;100.00;46562.72;6243448;23;20016;-72
2022/10/02 11:05:41;;;;;;;15.27;2.40;;;;;;;-145.18;100.00;46562.72;6242900;23;20111;-73
2022/10/02 11:08:16;;;;;;;11.50;2.00;;;;;;;-145.18;100.00;46564.69;6244037;23;20075;-72
2022/10/02 11:11:06;;;;;;;12.85;2.25;;;;;;;-145.18;100.00;46570.53;6243362;23;20008;-72
2022/10/02 11:13:45;;;;;;;18.17;2.27;;;;;;;-145.18;100.00;46582.25;6243542;23;20507;-72
2022/10/02 11:16:38;;;;;;;15.47;2.70;;;;;;;-145.18;100.00;46586.16;6243258;23;20015;-73
2022/10/02 11:19:34;;;;;;;13.17;2.20;;;;;;;-145.18;100.00;46590.06;6243196;23;19996;-72
2022/10/02 11:22:18;;;;;;;13.20;2.70;;;;;;;-145.18;100.00;46590.06;6243840;23;20008;-73
2022/10/02 11:25:08;;;;;;;18.70;2.30;;;;;;;-145.18;100.00;46590.06;6243132;23;20146;-72
2022/10/02 11:27:56;;;;;;;10.00;1.80;;;;;;;-145.18;100.00;46599.84;6243254;23;20437;-72
2022/10/02 11:30:53;;;;;;;13.83;2.37;;;;;;;-145.18;100.00;46609.59;6243017;23;20008;-73
2022/10/02 11:33:49;;;;;;;13.07;2.13;;;;;;;-145.18;100.00;46623.28;6111154;23;20389;-73
2022/10/02 11:36:23;;;;;;;9.80;2.08;;;;;;;-145.18;100.00;46615.47;6243449;23;20071;-73
2022/10/02 11:39:29;;;;;;;14.40;2.07;;;;;;;-145.18;100.00;46613.50;6243307;23;20356;-73
2022/10/02 11:42:19;;;;;;;9.37;1.57;;;;;;;-145.18;100.00;46629.13;6243802;23;20000;-72
2022/10/02 11:45:16;;;;;;;13.83;2.00;;;;;;;-145.18;100.00;46619.38;6243183;23;20030;-73
2022/10/02 11:48:11;;;;;;;10.97;2.10;;;;;;;-145.18;100.00;46609.59;6135455;23;20014;-73
2022/10/02 11:50:48;;;;;;;11.43;2.17;;;;;;;-145.18;100.00;46609.59;6242233;23;20012;-73
2022/10/02 11:53:36;;;;;;;13.70;2.50;;;;;;;-145.18;100.00;46609.59;6243475;23;20039;-73
2022/10/02 11:56:28;;;;;;;12.03;2.60;;;;;;;-145.18;100.00;46592.03;6243462;23;20429;-72
2022/10/02 11:59:17;;;;;;;14.80;3.23;;;;;;;-145.18;100.00;46597.88;6242772;23;20004;-73
2022/10/02 12:02:10;;;;;;;12.43;2.40;;;;;;;-145.18;100.00;46590.06;6243427;23;20016;-73
2022/10/02 12:05:03;;;;;;;12.13;2.23;;;;;;;-145.18;100.00;46599.84;6242980;23;20067;-73
2022/10/02 12:07:47;;;;;;;16.20;2.63;;;;;;;-145.18;100.00;46619.38;6243392;23;20008;-73
2022/10/02 12:10:19;;;;;;;12.67;2.50;;;;;;;-145.18;100.00;46619.38;6243041;23;20386;-73